createdAt,value
2022-08-16T00:01:24.417Z,11.43
2022-08-16T00:03:53.938Z,12.40
2022-08-16T00:06:22.707Z,13.63
2022-08-16T00:08:50.268Z,14.30
2022-08-16T00:11:20.828Z,13.85
2022-08-16T00:13:54.608Z,11.55
2022-08-16T00:17:05.366Z,11.73
2022-08-16T00:19:19.008Z,15.57
2022-08-16T00:21:46.861Z,11.77
2022-08-16T00:24:32.368Z,11.90
2022-08-16T00:27:01.192Z,14.77
2022-08-16T00:29:29.968Z,11.50
2022-08-16T00:32:01.252Z,16.10
2022-08-16T00:34:44.583Z,16.85
2022-08-16T00:37:24.336Z,14.90
2022-08-16T00:39:58.458Z,14.03
2022-08-16T00:42:32.199Z,14.75
2022-08-16T00:45:25.073Z,15.05
2022-08-16T00:47:54.125Z,11.90
2022-08-16T00:50:36.635Z,13.63
2022-08-16T00:53:10.446Z,9.98
2022-08-16T00:55:41.594Z,15.95
2022-08-16T00:58:12.994Z,12.02
2022-08-16T01:00:54.186Z,14.05
2022-08-16T01:03:30.537Z,10.82
2022-08-16T01:06:40.851Z,12.45
2022-08-16T01:08:54.554Z,11.70
2022-08-16T01:11:24.271Z,8.32
2022-08-16T01:13:56.943Z,11.07
2022-08-16T01:16:28.326Z,13.95
2022-08-16T01:19:15.449Z,11.40
2022-08-16T01:21:45.436Z,9.45
2022-08-16T01:24:53.906Z,13.48
2022-08-16T01:27:35.049Z,10.18
2022-08-16T01:30:19.220Z,9.32
2022-08-16T01:35:52.253Z,13.05
2022-08-16T01:38:28.669Z,11.13
2022-08-16T01:41:04.219Z,10.15
2022-08-16T01:43:32.877Z,11.07
2022-08-16T01:46:30.125Z,11.40
2022-08-16T01:49:01.965Z,9.27
2022-08-16T01:51:30.813Z,9.52
2022-08-16T01:53:59.190Z,13.18
2022-08-16T01:56:27.953Z,10.73
2022-08-16T01:59:05.432Z,10.75
2022-08-16T02:01:33.439Z,9.73
2022-08-16T02:04:10.099Z,10.93
2022-08-16T02:06:46.064Z,9.07
2022-08-16T02:09:15.008Z,11.07
2022-08-16T02:11:53.086Z,12.13
2022-08-16T02:14:27.982Z,10.00
2022-08-16T02:16:59.435Z,9.65
2022-08-16T02:19:59.481Z,11.43
2022-08-16T02:22:34.092Z,11.75
2022-08-16T02:25:06.701Z,14.45
2022-08-16T02:27:35.580Z,16.27
2022-08-16T02:30:06.235Z,11.77
2022-08-16T02:32:50.034Z,10.27
2022-08-16T02:35:23.204Z,13.68
2022-08-16T02:37:53.420Z,12.15
2022-08-16T02:40:24.892Z,17.77
2022-08-16T02:42:54.448Z,9.57
2022-08-16T02:45:24.874Z,14.85
2022-08-16T02:48:01.689Z,14.85
2022-08-16T02:50:54.119Z,10.90
2022-08-16T02:53:30.957Z,8.57
2022-08-16T02:55:58.188Z,10.05
2022-08-16T02:58:26.749Z,11.30
2022-08-16T03:00:57.566Z,10.30
2022-08-16T03:03:26.888Z,14.90
2022-08-16T03:06:41.961Z,11.30
2022-08-16T03:09:03.726Z,10.80
2022-08-16T03:11:35.633Z,10.90
2022-08-16T03:14:07.453Z,10.60
2022-08-16T03:16:58.457Z,12.95
2022-08-16T03:19:25.493Z,9.82
2022-08-16T03:22:19.520Z,12.68
2022-08-16T03:24:58.964Z,9.70
2022-08-16T03:27:34.275Z,11.35
2022-08-16T03:30:15.208Z,12.80
2022-08-16T03:32:51.787Z,14.68
2022-08-16T03:35:22.917Z,10.30
2022-08-16T03:38:03.040Z,10.57
2022-08-16T03:40:34.937Z,12.25
2022-08-16T03:43:20.581Z,10.15
2022-08-16T03:45:52.423Z,11.95
2022-08-16T03:48:36.551Z,13.10
2022-08-16T03:51:08.581Z,11.55
2022-08-16T03:53:37.763Z,10.15
2022-08-16T03:56:18.556Z,10.50
2022-08-16T03:58:48.503Z,7.55
2022-08-16T04:01:18.961Z,9.50
2022-08-16T04:03:46.249Z,12.70
2022-08-16T04:06:13.544Z,11.85
2022-08-16T04:08:43.433Z,11.10
2022-08-16T04:11:16.584Z,9.90
2022-08-16T04:14:00.154Z,12.80
2022-08-16T04:16:32.486Z,12.15
2022-08-16T04:19:04.835Z,12.60
2022-08-16T04:21:46.187Z,10.23
2022-08-16T04:24:14.878Z,9.05
2022-08-16T04:26:46.150Z,10.95
2022-08-16T04:29:23.531Z,10.25
2022-08-16T04:31:56.385Z,9.57
2022-08-16T04:34:28.034Z,12.07
2022-08-16T04:36:58.126Z,11.50
2022-08-16T04:39:37.156Z,7.90
2022-08-16T04:42:14.850Z,8.40
2022-08-16T04:44:53.959Z,11.93
2022-08-16T04:47:31.445Z,12.48
2022-08-16T04:50:00.842Z,9.18
2022-08-16T04:52:34.532Z,8.88
2022-08-16T04:55:28.835Z,12.68
2022-08-16T04:58:43.950Z,14.95
2022-08-16T05:00:53.731Z,12.18
2022-08-16T05:03:21.657Z,9.07
2022-08-16T05:05:59.420Z,10.20
2022-08-16T05:08:34.578Z,9.32
2022-08-16T05:11:08.592Z,10.20
2022-08-16T05:13:41.729Z,11.52
2022-08-16T05:16:21.635Z,11.30
2022-08-16T05:18:52.149Z,10.50
2022-08-16T05:21:21.606Z,9.60
2022-08-16T05:23:55.828Z,9.15
2022-08-16T05:26:28.767Z,11.73
2022-08-16T05:29:00.269Z,10.43
2022-08-16T05:31:31.043Z,10.68
2022-08-16T05:34:00.636Z,14.07
2022-08-16T05:36:34.040Z,11.27
2022-08-16T05:39:09.550Z,8.30
2022-08-16T05:41:45.271Z,9.05
2022-08-16T05:44:23.201Z,12.05
2022-08-16T05:47:00.216Z,11.90
2022-08-16T05:49:38.692Z,12.95
2022-08-16T05:52:13.353Z,10.45
2022-08-16T05:54:47.229Z,13.63
2022-08-16T05:57:17.759Z,12.90
2022-08-16T05:59:47.628Z,9.77
2022-08-16T06:02:18.853Z,9.32
2022-08-16T06:04:46.284Z,9.45
2022-08-16T06:07:24.887Z,13.10
2022-08-16T06:09:56.378Z,11.23
2022-08-16T06:12:27.095Z,17.17
2022-08-16T06:15:04.425Z,11.15
2022-08-16T06:17:42.533Z,8.93
2022-08-16T06:20:18.250Z,10.98
2022-08-16T06:22:57.730Z,7.80
2022-08-16T06:25:36.108Z,15.70
2022-08-16T06:28:10.411Z,9.10
2022-08-16T06:30:45.493Z,12.63
2022-08-16T06:33:22.402Z,11.82
2022-08-16T06:35:54.983Z,13.30
2022-08-16T06:38:33.601Z,8.82
2022-08-16T06:41:13.608Z,8.60
2022-08-16T06:43:42.078Z,14.43
2022-08-16T06:46:20.962Z,11.07
2022-08-16T06:48:51.509Z,12.35
2022-08-16T06:51:19.218Z,13.20
2022-08-16T06:53:52.709Z,10.82
2022-08-16T06:56:23.643Z,9.80
2022-08-16T06:58:52.748Z,9.38
2022-08-16T07:01:44.488Z,9.98
2022-08-16T07:04:11.011Z,11.13
2022-08-16T07:06:43.167Z,12.75
2022-08-16T07:09:15.992Z,7.75
2022-08-16T07:11:48.070Z,8.15
2022-08-16T07:14:25.067Z,11.38
2022-08-16T07:16:53.341Z,8.82
2022-08-16T07:19:20.717Z,6.88
2022-08-16T07:21:59.323Z,7.85
2022-08-16T07:24:30.375Z,9.05
2022-08-16T07:27:01.624Z,9.55
2022-08-16T07:29:31.696Z,11.23
2022-08-16T07:32:00.647Z,8.05
2022-08-16T07:34:35.121Z,12.20
2022-08-16T07:37:06.798Z,7.10
2022-08-16T07:39:34.508Z,9.77
2022-08-16T07:42:28.195Z,8.85
2022-08-16T07:44:58.669Z,6.60
2022-08-16T07:47:31.775Z,6.18
2022-08-16T07:50:05.392Z,9.00
2022-08-16T07:52:34.729Z,8.80
2022-08-16T07:55:06.547Z,7.55
2022-08-16T07:57:44.287Z,7.50
2022-08-16T08:00:21.705Z,7.60
2022-08-16T08:02:56.935Z,7.53
2022-08-16T08:05:35.981Z,5.57
2022-08-16T08:08:11.453Z,6.97
2022-08-16T08:10:53.533Z,8.27
2022-08-16T08:13:20.804Z,10.13
2022-08-16T08:16:18.258Z,10.55
2022-08-16T08:18:50.536Z,19.17
2022-08-16T08:21:27.272Z,9.48
2022-08-16T08:23:56.558Z,9.38
2022-08-16T08:26:25.351Z,7.00
2022-08-16T08:29:03.003Z,7.75
2022-08-16T08:31:36.530Z,4.88
2022-08-16T08:34:07.457Z,9.63
2022-08-16T08:36:38.668Z,9.95
2022-08-16T08:39:13.075Z,5.53
2022-08-16T08:41:42.493Z,6.80
2022-08-16T08:44:29.087Z,6.80
2022-08-16T08:47:03.306Z,6.75
2022-08-16T08:49:47.007Z,10.23
2022-08-16T08:52:34.916Z,10.90
2022-08-16T08:55:10.539Z,5.63
2022-08-16T08:57:41.111Z,7.07
2022-08-16T09:00:13.723Z,5.82
2022-08-16T09:02:45.672Z,7.20
2022-08-16T09:05:38.527Z,7.68
2022-08-16T09:08:07.439Z,9.35
2022-08-16T09:10:39.487Z,4.82
2022-08-16T09:13:08.166Z,8.27
2022-08-16T09:15:38.943Z,7.00
2022-08-16T09:18:25.309Z,6.63
2022-08-16T09:20:58.549Z,5.07
2022-08-16T09:23:36.489Z,5.65
2022-08-16T09:26:44.355Z,7.20
2022-08-16T09:29:16.880Z,9.02
2022-08-16T09:31:41.321Z,8.48
2022-08-16T09:34:09.624Z,8.00
2022-08-16T09:36:44.946Z,6.43
2022-08-16T09:39:16.181Z,6.00
2022-08-16T09:41:53.458Z,5.70
2022-08-16T09:45:09.478Z,4.65
2022-08-16T09:47:12.904Z,8.40
2022-08-16T09:49:40.975Z,7.60
2022-08-16T09:52:09.440Z,6.72
2022-08-16T09:54:38.801Z,6.60
2022-08-16T09:57:12.431Z,6.35
2022-08-16T09:59:41.868Z,5.75
2022-08-16T10:02:26.322Z,4.95
2022-08-16T10:04:56.562Z,6.07
2022-08-16T10:07:25.813Z,5.90
2022-08-16T10:09:56.156Z,7.80
2022-08-16T10:12:56.050Z,7.88
2022-08-16T10:15:30.226Z,4.90
2022-08-16T10:18:00.151Z,6.55
2022-08-16T10:20:36.072Z,7.45
2022-08-16T10:23:07.995Z,5.68
2022-08-16T10:27:11.321Z,5.70
2022-08-16T10:28:29.985Z,8.90
2022-08-16T10:31:03.427Z,7.90
2022-08-16T10:33:34.294Z,5.30
2022-08-16T10:36:07.996Z,6.88
2022-08-16T10:38:38.236Z,8.85
2022-08-16T10:41:07.501Z,6.70
2022-08-16T10:43:38.879Z,6.65
2022-08-16T10:46:33.669Z,8.25
2022-08-16T10:49:01.101Z,8.47
2022-08-16T10:51:34.206Z,7.60
2022-08-16T10:54:29.443Z,6.97
2022-08-16T10:57:00.544Z,7.68
2022-08-16T10:59:32.729Z,6.85
2022-08-16T11:07:45.209Z,6.88
2022-08-16T11:19:12.360Z,5.07
2022-08-16T11:24:41.852Z,8.07
2022-08-16T11:27:22.870Z,7.75
2022-08-16T11:29:55.180Z,5.82
2022-08-16T11:32:31.908Z,7.03
2022-08-16T11:35:10.617Z,8.48
2022-08-16T11:40:33.217Z,5.57
2022-08-16T11:43:04.703Z,4.88
2022-08-16T11:45:33.960Z,9.85
2022-08-16T11:48:03.729Z,10.02
2022-08-16T11:50:33.664Z,6.63
2022-08-16T11:53:04.033Z,8.13
2022-08-16T11:55:38.224Z,10.35
2022-08-16T11:58:08.579Z,7.32
2022-08-16T12:00:50.367Z,6.90
2022-08-16T12:03:25.019Z,8.80
2022-08-16T12:06:10.885Z,5.38
2022-08-16T12:08:39.822Z,10.80
2022-08-16T12:11:09.912Z,5.10
2022-08-16T12:13:37.934Z,8.15
2022-08-16T12:16:20.589Z,7.63
2022-08-16T12:23:47.333Z,8.00
2022-08-16T12:26:14.519Z,5.43
2022-08-16T12:28:55.935Z,5.03
2022-08-16T12:31:25.057Z,8.73
2022-08-16T12:33:54.178Z,8.35
2022-08-16T12:36:26.377Z,8.95
2022-08-16T12:38:57.540Z,5.65
2022-08-16T12:41:26.501Z,5.03
2022-08-16T12:43:57.223Z,7.75
2022-08-16T12:46:29.170Z,6.63
2022-08-16T12:48:58.992Z,7.78
2022-08-16T12:51:59.468Z,8.00
2022-08-16T12:54:25.980Z,8.93
2022-08-16T12:56:53.909Z,6.82
2022-08-16T12:59:23.635Z,7.95
2022-08-16T13:01:58.322Z,4.15
2022-08-16T13:04:31.367Z,5.72
2022-08-16T13:09:42.302Z,7.47
2022-08-16T13:12:23.653Z,7.00
2022-08-16T13:14:53.919Z,4.15
2022-08-16T13:17:26.201Z,4.40
2022-08-16T13:20:10.909Z,7.60
2022-08-16T13:22:42.821Z,5.30
2022-08-16T13:25:18.898Z,6.60
2022-08-16T13:28:03.019Z,5.75
2022-08-16T13:30:44.232Z,5.57
2022-08-16T13:33:18.237Z,10.00
2022-08-16T13:35:56.484Z,6.57
2022-08-16T13:38:27.485Z,7.32
2022-08-16T13:40:58.954Z,6.82
2022-08-16T13:43:27.915Z,9.68
2022-08-16T13:45:57.302Z,8.43
2022-08-16T13:48:26.114Z,6.03
2022-08-16T13:50:56.407Z,7.63
2022-08-16T13:53:25.831Z,7.13
2022-08-16T13:55:57.967Z,5.78
2022-08-16T13:58:36.480Z,5.75
2022-08-16T14:01:09.674Z,5.83
2022-08-16T14:03:44.063Z,6.13
2022-08-16T14:06:14.167Z,8.75
2022-08-16T14:08:43.422Z,10.55
2022-08-16T14:11:14.581Z,5.93
2022-08-16T14:13:44.197Z,11.17
2022-08-16T14:16:24.581Z,12.07
2022-08-16T14:18:59.665Z,6.50
2022-08-16T14:21:26.974Z,5.25
2022-08-16T14:24:03.072Z,9.00
2022-08-16T14:26:44.033Z,8.13
2022-08-16T14:29:11.620Z,6.75
2022-08-16T14:31:39.875Z,7.68
2022-08-16T14:34:11.129Z,9.50
2022-08-16T14:36:42.140Z,9.23
2022-08-16T14:39:09.700Z,9.30
2022-08-16T14:41:39.496Z,10.30
2022-08-16T14:44:08.243Z,7.90
2022-08-16T14:46:36.610Z,9.38
2022-08-16T14:49:04.751Z,9.30
2022-08-16T14:51:36.470Z,13.23
2022-08-16T14:54:05.946Z,12.43
2022-08-16T14:56:42.961Z,12.27
2022-08-16T14:59:14.082Z,10.13
2022-08-16T15:01:57.807Z,7.80
2022-08-16T15:04:39.708Z,15.45
2022-08-16T15:07:10.942Z,10.30
2022-08-16T15:09:59.883Z,9.95
2022-08-16T15:12:33.712Z,9.48
2022-08-16T15:15:12.623Z,8.88
2022-08-16T15:17:56.170Z,13.57
2022-08-16T15:20:29.190Z,12.32
2022-08-16T15:22:59.139Z,10.35
2022-08-16T15:25:49.446Z,8.65
2022-08-16T15:28:31.852Z,9.07
2022-08-16T15:31:03.069Z,8.73
2022-08-16T15:33:34.259Z,9.93
2022-08-16T15:36:03.106Z,7.97
2022-08-16T15:38:56.865Z,11.07
2022-08-16T15:41:47.973Z,11.73
2022-08-16T15:44:22.735Z,11.70
2022-08-16T15:46:56.223Z,11.35
2022-08-16T15:49:34.675Z,13.85
2022-08-16T15:52:15.648Z,11.20
2022-08-16T15:54:53.269Z,14.07
2022-08-16T15:57:27.119Z,12.23
2022-08-16T15:59:58.418Z,11.05
2022-08-16T16:02:32.204Z,10.23
2022-08-16T16:05:09.859Z,13.48
2022-08-16T16:07:40.917Z,12.50
2022-08-16T16:10:29.445Z,8.25
2022-08-16T16:13:00.549Z,10.10
2022-08-16T16:15:36.308Z,11.15
2022-08-16T16:18:09.863Z,10.30
2022-08-16T16:20:39.896Z,10.15
2022-08-16T16:23:11.124Z,14.15
2022-08-16T16:25:43.947Z,10.93
2022-08-16T16:29:06.376Z,12.07
2022-08-16T16:31:13.459Z,13.95
2022-08-16T16:33:43.527Z,12.50
2022-08-16T16:36:14.824Z,11.77
2022-08-16T16:38:46.482Z,10.40
2022-08-16T16:41:24.337Z,16.58
2022-08-16T16:43:53.739Z,11.68
2022-08-16T16:46:43.039Z,17.08
2022-08-16T16:49:12.002Z,12.20
2022-08-16T16:51:44.570Z,13.27
2022-08-16T16:54:27.985Z,12.75
2022-08-16T16:56:57.799Z,14.68
2022-08-16T16:59:28.445Z,14.85
2022-08-16T17:02:39.430Z,14.30
2022-08-16T17:04:47.531Z,15.07
2022-08-16T17:07:15.152Z,14.73
2022-08-16T17:09:44.377Z,18.08
2022-08-16T17:12:20.092Z,15.38
2022-08-16T17:15:02.475Z,19.45
2022-08-16T17:17:36.196Z,18.80
2022-08-16T17:20:18.828Z,17.17
2022-08-16T17:22:46.292Z,16.77
2022-08-16T17:25:24.176Z,18.90
2022-08-16T17:27:52.335Z,18.48
2022-08-16T17:30:29.610Z,21.27
2022-08-16T17:33:13.782Z,17.33
2022-08-16T17:35:55.452Z,18.33
2022-08-16T17:38:38.666Z,17.27
2022-08-16T17:41:11.854Z,14.88
2022-08-16T17:43:44.568Z,18.38
2022-08-16T17:46:41.299Z,18.48
2022-08-16T17:49:04.923Z,15.20
2022-08-16T17:51:34.343Z,20.10
2022-08-16T17:54:03.597Z,17.42
2022-08-16T17:56:30.821Z,17.90
2022-08-16T17:58:58.064Z,22.15
2022-08-16T18:01:27.739Z,23.02
2022-08-16T18:04:07.036Z,24.30
2022-08-16T18:06:38.040Z,17.95
2022-08-16T18:09:06.156Z,18.40
2022-08-16T18:11:40.874Z,20.58
2022-08-16T18:14:14.772Z,19.13
2022-08-16T18:16:43.085Z,19.25
2022-08-16T18:19:10.802Z,19.40
2022-08-16T18:21:56.957Z,18.95
2022-08-16T18:24:27.750Z,20.58
2022-08-16T18:26:55.302Z,24.75
2022-08-16T18:29:22.916Z,18.50
2022-08-16T18:31:51.026Z,22.98
2022-08-16T18:34:20.816Z,19.92
2022-08-16T18:36:48.696Z,20.40
2022-08-16T18:39:16.581Z,24.17
2022-08-16T18:41:47.121Z,21.05
2022-08-16T18:44:26.805Z,25.92
2022-08-16T18:46:55.600Z,19.48
2022-08-16T18:49:22.816Z,21.02
2022-08-16T18:51:51.062Z,21.25
2022-08-16T18:54:18.905Z,18.40
2022-08-16T18:56:56.797Z,22.30
2022-08-16T18:59:26.706Z,21.63
2022-08-16T19:01:54.132Z,16.65
2022-08-16T19:04:56.023Z,17.95
2022-08-16T19:07:14.917Z,21.30
2022-08-16T19:09:42.170Z,22.75
2022-08-16T19:12:09.837Z,17.10
2022-08-16T19:14:37.046Z,16.58
2022-08-16T19:17:05.467Z,19.48
2022-08-16T19:19:32.620Z,20.98
2022-08-16T19:21:59.953Z,16.95
2022-08-16T19:24:29.308Z,23.80
2022-08-16T19:26:57.222Z,19.65
2022-08-16T19:29:24.689Z,19.70
2022-08-16T19:31:51.936Z,22.75
2022-08-16T19:34:19.856Z,20.45
2022-08-16T19:36:47.883Z,19.10
2022-08-16T19:39:16.553Z,21.75
2022-08-16T19:41:46.365Z,22.48
2022-08-16T19:44:24.378Z,16.25
2022-08-16T19:46:51.879Z,17.50
2022-08-16T19:49:19.064Z,16.80
2022-08-16T19:51:47.555Z,15.40
2022-08-16T19:56:59.317Z,15.30
2022-08-16T19:59:39.356Z,18.60
2022-08-16T20:02:35.429Z,19.58
2022-08-16T20:05:05.494Z,19.63
2022-08-16T20:07:32.838Z,19.15
2022-08-16T20:10:00.224Z,17.20
2022-08-16T20:12:27.359Z,19.92
2022-08-16T20:14:54.634Z,17.65
2022-08-16T20:17:21.834Z,16.90
2022-08-16T20:19:49.187Z,17.38
2022-08-16T20:22:42.262Z,19.10
2022-08-16T20:25:09.184Z,19.27
2022-08-16T20:27:36.980Z,14.90
2022-08-16T20:30:06.921Z,18.35
2022-08-16T20:32:35.889Z,14.32
2022-08-16T20:35:07.756Z,19.35
2022-08-16T20:37:37.441Z,17.95
2022-08-16T20:40:28.441Z,20.13
2022-08-16T20:43:08.267Z,17.92
2022-08-16T20:45:37.527Z,21.25
2022-08-16T20:48:06.079Z,20.58
2022-08-16T20:50:35.074Z,17.27
2022-08-16T20:53:02.405Z,19.00
2022-08-16T20:55:30.344Z,20.65
2022-08-16T20:57:57.639Z,22.23
2022-08-16T21:00:31.289Z,16.52
2022-08-16T21:02:58.482Z,20.48
2022-08-16T21:05:31.825Z,16.63
2022-08-16T21:07:59.387Z,18.77
2022-08-16T21:10:27.224Z,20.58
2022-08-16T21:13:03.670Z,19.77
2022-08-16T21:15:33.166Z,18.80
2022-08-16T21:18:01.275Z,20.08
2022-08-16T21:20:29.561Z,17.02
2022-08-16T21:23:00.008Z,18.40
2022-08-16T21:25:28.214Z,18.85
2022-08-16T21:28:40.447Z,17.40
2022-08-16T21:30:46.957Z,18.55
2022-08-16T21:33:18.653Z,15.38
2022-08-16T21:35:47.860Z,15.90
2022-08-16T21:38:29.915Z,17.60
2022-08-16T21:40:59.124Z,15.18
2022-08-16T21:43:28.859Z,18.08
2022-08-16T21:45:56.165Z,16.70
2022-08-16T21:48:33.926Z,16.38
2022-08-16T21:51:09.105Z,16.52
2022-08-16T21:53:41.032Z,15.95
2022-08-16T21:56:12.665Z,15.70
2022-08-16T21:58:44.522Z,17.25
2022-08-16T22:01:11.894Z,19.52
2022-08-16T22:03:39.061Z,17.17
2022-08-16T22:06:12.201Z,17.75
2022-08-16T22:08:45.671Z,15.77
2022-08-16T22:11:20.231Z,20.35
2022-08-16T22:13:51.165Z,17.90
2022-08-16T22:16:24.998Z,22.52
2022-08-16T22:18:52.847Z,14.23
2022-08-16T22:21:20.781Z,18.50
2022-08-16T22:23:55.162Z,14.02
2022-08-16T22:26:33.290Z,15.27
2022-08-16T22:29:09.394Z,18.73
2022-08-16T22:31:40.523Z,19.58
2022-08-16T22:34:09.105Z,12.70
2022-08-16T22:36:40.387Z,15.70
2022-08-16T22:39:12.249Z,17.90
2022-08-16T22:41:42.274Z,15.88
2022-08-16T22:44:09.909Z,15.85
2022-08-16T22:46:37.644Z,16.40
2022-08-16T22:49:06.506Z,16.27
2022-08-16T22:51:34.892Z,15.52
2022-08-16T22:54:41.323Z,14.95
2022-08-16T22:56:49.480Z,15.80
2022-08-16T22:59:17.820Z,17.17
2022-08-16T23:01:45.271Z,12.82
2022-08-16T23:04:12.708Z,18.08
2022-08-16T23:06:41.000Z,14.60
2022-08-16T23:09:08.351Z,16.15
2022-08-16T23:11:35.957Z,13.68
2022-08-16T23:14:03.244Z,15.05
2022-08-16T23:16:34.700Z,18.98
2022-08-16T23:19:11.691Z,13.75
2022-08-16T23:21:41.943Z,21.23
2022-08-16T23:24:10.141Z,15.85
2022-08-16T23:26:45.987Z,13.50
2022-08-16T23:29:23.501Z,20.85
2022-08-16T23:31:58.874Z,13.85
2022-08-16T23:36:58.320Z,13.80
2022-08-16T23:39:28.853Z,13.55
2022-08-16T23:41:56.126Z,15.32
2022-08-16T23:44:57.175Z,13.63
2022-08-16T23:47:11.122Z,16.00
2022-08-16T23:49:57.260Z,14.35
2022-08-16T23:52:53.271Z,16.42
2022-08-16T23:55:14.137Z,16.08
2022-08-16T23:57:44.096Z,14.73
